sensor_id;sensor_type;location;lat;lon;timestamp;pressure;altitude;pressure_sealevel;temperature;humidity
64086;BME280;50333;47.436;21.390;2023-02-20T00:01:37;101204.91;;;6.10;59.40
64086;BME280;50333;47.436;21.390;2023-02-20T00:04:05;101208.12;;;6.06;58.86
64086;BME280;50333;47.436;21.390;2023-02-20T00:06:32;101214.56;;;5.96;59.05
64086;BME280;50333;47.436;21.390;2023-02-20T00:09:00;101219.19;;;6.19;59.37
64086;BME280;50333;47.436;21.390;2023-02-20T00:11:28;101224.06;;;6.02;58.75
64086;BME280;50333;47.436;21.390;2023-02-20T00:13:56;101220.81;;;6.39;58.12
64086;BME280;50333;47.436;21.390;2023-02-20T00:16:24;101217.44;;;6.38;57.16
64086;BME280;50333;47.436;21.390;2023-02-20T00:18:52;101211.94;;;6.28;57.35
64086;BME280;50333;47.436;21.390;2023-02-20T00:21:19;101217.19;;;6.47;57.25
64086;BME280;50333;47.436;21.390;2023-02-20T00:23:47;101223.78;;;6.42;57.42
64086;BME280;50333;47.436;21.390;2023-02-20T00:26:15;101229.31;;;5.89;56.80
64086;BME280;50333;47.436;21.390;2023-02-20T00:28:43;101233.41;;;6.35;57.21
64086;BME280;50333;47.436;21.390;2023-02-20T00:31:14;101237.37;;;6.63;55.97
64086;BME280;50333;47.436;21.390;2023-02-20T00:33:42;101249.81;;;6.79;56.13
64086;BME280;50333;47.436;21.390;2023-02-20T00:36:15;101245.78;;;6.84;55.95
64086;BME280;50333;47.436;21.390;2023-02-20T00:38:44;101245.66;;;6.97;55.96
64086;BME280;50333;47.436;21.390;2023-02-20T00:41:13;101253.44;;;7.15;55.20
64086;BME280;50333;47.436;21.390;2023-02-20T00:43:42;101246.34;;;6.86;55.49
64086;BME280;50333;47.436;21.390;2023-02-20T00:46:11;101242.41;;;7.02;54.02
64086;BME280;50333;47.436;21.390;2023-02-20T00:48:42;101251.78;;;7.21;54.32
64086;BME280;50333;47.436;21.390;2023-02-20T00:51:25;101252.06;;;7.31;54.81
64086;BME280;50333;47.436;21.390;2023-02-20T00:53:54;101254.31;;;7.46;53.96
64086;BME280;50333;47.436;21.390;2023-02-20T00:56:21;101261.00;;;7.35;53.76
64086;BME280;50333;47.436;21.390;2023-02-20T00:58:49;101245.88;;;7.51;54.67
64086;BME280;50333;47.436;21.390;2023-02-20T01:01:17;101247.06;;;7.67;54.10
64086;BME280;50333;47.436;21.390;2023-02-20T01:03:45;101246.31;;;7.78;53.94
64086;BME280;50333;47.436;21.390;2023-02-20T01:06:14;101240.13;;;7.79;54.68
64086;BME280;50333;47.436;21.390;2023-02-20T01:08:42;101244.28;;;7.80;54.62
64086;BME280;50333;47.436;21.390;2023-02-20T01:11:10;101237.97;;;7.76;54.47
64086;BME280;50333;47.436;21.390;2023-02-20T01:13:38;101244.41;;;7.73;54.77
64086;BME280;50333;47.436;21.390;2023-02-20T01:16:06;101234.38;;;7.77;54.06
64086;BME280;50333;47.436;21.390;2023-02-20T01:18:34;101236.19;;;7.88;54.52
64086;BME280;50333;47.436;21.390;2023-02-20T01:21:02;101240.50;;;7.64;54.56
64086;BME280;50333;47.436;21.390;2023-02-20T01:23:30;101249.53;;;7.43;55.58
64086;BME280;50333;47.436;21.390;2023-02-20T01:25:58;101245.94;;;7.26;56.50
64086;BME280;50333;47.436;21.390;2023-02-20T01:28:27;101239.34;;;7.30;56.68
64086;BME280;50333;47.436;21.390;2023-02-20T01:30:55;101241.47;;;7.33;56.64
64086;BME280;50333;47.436;21.390;2023-02-20T01:33:23;101244.09;;;7.14;56.69
64086;BME280;50333;47.436;21.390;2023-02-20T01:35:51;101243.22;;;7.39;57.25
64086;BME280;50333;47.436;21.390;2023-02-20T01:38:21;101244.19;;;7.57;56.41
64086;BME280;50333;47.436;21.390;2023-02-20T01:40:49;101240.37;;;7.59;56.49
64086;BME280;50333;47.436;21.390;2023-02-20T01:43:17;101246.16;;;7.61;56.15
64086;BME280;50333;47.436;21.390;2023-02-20T01:45:45;101252.41;;;7.53;57.57
64086;BME280;50333;47.436;21.390;2023-02-20T01:48:21;101254.44;;;7.51;57.42
64086;BME280;50333;47.436;21.390;2023-02-20T01:50:54;101265.31;;;7.60;57.55
64086;BME280;50333;47.436;21.390;2023-02-20T01:53:27;101265.53;;;7.40;57.66
64086;BME280;50333;47.436;21.390;2023-02-20T01:56:06;101264.97;;;7.57;57.99
64086;BME280;50333;47.436;21.390;2023-02-20T01:58:42;101274.25;;;7.64;57.44
64086;BME280;50333;47.436;21.390;2023-02-20T02:01:11;101274.16;;;7.71;57.58
64086;BME280;50333;47.436;21.390;2023-02-20T02:03:42;101265.94;;;7.74;57.82
64086;BME280;50333;47.436;21.390;2023-02-20T02:06:12;101270.87;;;7.64;57.18
64086;BME280;50333;47.436;21.390;2023-02-20T02:08:43;101277.94;;;7.38;57.10
64086;BME280;50333;47.436;21.390;2023-02-20T02:11:14;101267.13;;;7.41;56.63
64086;BME280;50333;47.436;21.390;2023-02-20T02:13:44;101273.03;;;7.48;56.57
64086;BME280;50333;47.436;21.390;2023-02-20T02:16:47;101279.94;;;6.99;59.41
64086;BME280;50333;47.436;21.390;2023-02-20T02:28:58;101292.38;;;7.52;57.09
64086;BME280;50333;47.436;21.390;2023-02-20T02:33:50;101303.66;;;7.58;57.67
64086;BME280;50333;47.436;21.390;2023-02-20T02:39:18;101311.81;;;7.25;58.64
64086;BME280;50333;47.436;21.390;2023-02-20T02:41:56;101314.97;;;7.27;58.11
64086;BME280;50333;47.436;21.390;2023-02-20T02:44:33;101316.62;;;7.40;58.22
64086;BME280;50333;47.436;21.390;2023-02-20T02:52:03;101319.00;;;7.41;57.24
64086;BME280;50333;47.436;21.390;2023-02-20T02:54:32;101317.88;;;7.37;57.49
64086;BME280;50333;47.436;21.390;2023-02-20T02:57:38;101316.28;;;7.36;56.97
64086;BME280;50333;47.436;21.390;2023-02-20T03:02:59;101304.84;;;7.44;57.49
64086;BME280;50333;47.436;21.390;2023-02-20T03:05:51;101304.59;;;7.45;57.23
64086;BME280;50333;47.436;21.390;2023-02-20T03:08:29;101310.34;;;7.29;57.61
64086;BME280;50333;47.436;21.390;2023-02-20T03:11:04;101315.72;;;7.52;57.21
64086;BME280;50333;47.436;21.390;2023-02-20T03:13:41;101316.41;;;7.41;58.75
64086;BME280;50333;47.436;21.390;2023-02-20T03:16:40;101324.91;;;7.48;58.17
64086;BME280;50333;47.436;21.390;2023-02-20T03:19:12;101328.94;;;7.26;57.60
64086;BME280;50333;47.436;21.390;2023-02-20T03:21:45;101323.06;;;6.93;58.79
64086;BME280;50333;47.436;21.390;2023-02-20T03:24:16;101333.97;;;7.21;58.55
64086;BME280;50333;47.436;21.390;2023-02-20T03:26:47;101327.06;;;7.14;58.08
64086;BME280;50333;47.436;21.390;2023-02-20T03:29:22;101337.53;;;7.26;58.05
64086;BME280;50333;47.436;21.390;2023-02-20T03:31:59;101332.75;;;7.23;57.71
64086;BME280;50333;47.436;21.390;2023-02-20T03:34:47;101342.06;;;7.31;58.12
64086;BME280;50333;47.436;21.390;2023-02-20T03:37:37;101350.25;;;7.28;58.62
64086;BME280;50333;47.436;21.390;2023-02-20T03:40:25;101358.41;;;7.31;58.66
64086;BME280;50333;47.436;21.390;2023-02-20T03:43:17;101351.03;;;7.35;58.42
64086;BME280;50333;47.436;21.390;2023-02-20T03:46:03;101367.16;;;7.12;58.94
64086;BME280;50333;47.436;21.390;2023-02-20T03:48:39;101371.63;;;7.30;59.04
64086;BME280;50333;47.436;21.390;2023-02-20T03:51:12;101367.56;;;7.34;58.73
64086;BME280;50333;47.436;21.390;2023-02-20T03:53:42;101375.00;;;7.30;59.07
64086;BME280;50333;47.436;21.390;2023-02-20T03:56:17;101376.56;;;7.31;59.28
64086;BME280;50333;47.436;21.390;2023-02-20T03:58:51;101377.62;;;7.24;59.75
64086;BME280;50333;47.436;21.390;2023-02-20T04:01:23;101373.31;;;7.17;60.09
64086;BME280;50333;47.436;21.390;2023-02-20T04:03:55;101378.63;;;7.23;59.60
64086;BME280;50333;47.436;21.390;2023-02-20T04:06:27;101388.44;;;7.21;60.26
64086;BME280;50333;47.436;21.390;2023-02-20T04:11:43;101384.53;;;7.11;60.54
64086;BME280;50333;47.436;21.390;2023-02-20T04:14:13;101386.84;;;6.94;61.02
64086;BME280;50333;47.436;21.390;2023-02-20T04:16:50;101382.56;;;7.07;60.71
64086;BME280;50333;47.436;21.390;2023-02-20T04:19:22;101381.63;;;7.01;60.77
64086;BME280;50333;47.436;21.390;2023-02-20T04:21:53;101372.53;;;6.92;60.86
64086;BME280;50333;47.436;21.390;2023-02-20T04:24:43;101370.13;;;6.90;61.15
64086;BME280;50333;47.436;21.390;2023-02-20T04:27:14;101372.56;;;6.85;61.00
64086;BME280;50333;47.436;21.390;2023-02-20T04:29:44;101375.78;;;6.80;61.24
64086;BME280;50333;47.436;21.390;2023-02-20T04:32:12;101365.56;;;6.60;61.31
64086;BME280;50333;47.436;21.390;2023-02-20T04:34:40;101367.28;;;6.67;61.03
64086;BME280;50333;47.436;21.390;2023-02-20T04:37:15;101372.69;;;6.65;61.16
64086;BME280;50333;47.436;21.390;2023-02-20T04:39:43;101382.13;;;6.53;61.36
64086;BME280;50333;47.436;21.390;2023-02-20T04:42:11;101377.25;;;6.38;61.84
64086;BME280;50333;47.436;21.390;2023-02-20T04:44:45;101382.22;;;6.39;61.97
64086;BME280;50333;47.436;21.390;2023-02-20T04:47:15;101383.44;;;6.30;61.96
64086;BME280;50333;47.436;21.390;2023-02-20T04:49:46;101385.97;;;6.44;62.08
64086;BME280;50333;47.436;21.390;2023-02-20T04:52:15;101383.22;;;6.38;62.47
64086;BME280;50333;47.436;21.390;2023-02-20T04:54:43;101381.59;;;6.37;62.68
64086;BME280;50333;47.436;21.390;2023-02-20T04:57:11;101389.25;;;6.26;63.30
64086;BME280;50333;47.436;21.390;2023-02-20T04:59:40;101393.28;;;6.15;63.23
64086;BME280;50333;47.436;21.390;2023-02-20T05:02:09;101387.75;;;6.04;63.33
64086;BME280;50333;47.436;21.390;2023-02-20T05:04:37;101388.56;;;5.98;63.84
64086;BME280;50333;47.436;21.390;2023-02-20T05:07:05;101393.94;;;5.97;64.14
64086;BME280;50333;47.436;21.390;2023-02-20T05:09:33;101398.88;;;6.05;64.13
64086;BME280;50333;47.436;21.390;2023-02-20T05:12:02;101394.19;;;5.69;65.75
64086;BME280;50333;47.436;21.390;2023-02-20T05:14:29;101397.53;;;5.76;65.91
64086;BME280;50333;47.436;21.390;2023-02-20T05:16:57;101394.19;;;5.69;66.19
64086;BME280;50333;47.436;21.390;2023-02-20T05:19:25;101388.41;;;5.66;66.29
64086;BME280;50333;47.436;21.390;2023-02-20T05:21:53;101385.78;;;5.80;66.09
64086;BME280;50333;47.436;21.390;2023-02-20T05:24:42;101397.31;;;5.91;66.09
64086;BME280;50333;47.436;21.390;2023-02-20T05:27:11;101394.38;;;5.67;66.56
64086;BME280;50333;47.436;21.390;2023-02-20T05:29:49;101402.47;;;5.97;66.14
64086;BME280;50333;47.436;21.390;2023-02-20T05:32:20;101406.47;;;5.80;66.52
64086;BME280;50333;47.436;21.390;2023-02-20T05:34:48;101412.28;;;5.82;66.58
64086;BME280;50333;47.436;21.390;2023-02-20T05:37:17;101412.87;;;5.77;66.84
64086;BME280;50333;47.436;21.390;2023-02-20T05:39:46;101416.09;;;5.53;67.59
64086;BME280;50333;47.436;21.390;2023-02-20T05:42:14;101404.13;;;5.52;67.60
64086;BME280;50333;47.436;21.390;2023-02-20T05:44:42;101410.53;;;5.56;67.46
64086;BME280;50333;47.436;21.390;2023-02-20T05:47:11;101416.28;;;5.64;67.26
64086;BME280;50333;47.436;21.390;2023-02-20T05:49:39;101418.47;;;5.27;68.40
64086;BME280;50333;47.436;21.390;2023-02-20T05:52:06;101425.06;;;5.37;68.00
64086;BME280;50333;47.436;21.390;2023-02-20T05:54:39;101427.63;;;5.37;68.14
64086;BME280;50333;47.436;21.390;2023-02-20T05:57:07;101428.81;;;5.14;68.51
64086;BME280;50333;47.436;21.390;2023-02-20T05:59:38;101421.25;;;5.59;67.33
64086;BME280;50333;47.436;21.390;2023-02-20T06:02:06;101429.19;;;5.71;66.79
64086;BME280;50333;47.436;21.390;2023-02-20T06:04:34;101434.53;;;5.83;66.26
64086;BME280;50333;47.436;21.390;2023-02-20T06:07:01;101442.94;;;5.72;66.22
64086;BME280;50333;47.436;21.390;2023-02-20T06:09:29;101444.28;;;5.94;65.80
64086;BME280;50333;47.436;21.390;2023-02-20T06:11:57;101439.38;;;5.46;66.27
64086;BME280;50333;47.436;21.390;2023-02-20T06:14:25;101440.56;;;5.37;66.67
64086;BME280;50333;47.436;21.390;2023-02-20T06:16:56;101440.13;;;5.80;65.37
64086;BME280;50333;47.436;21.390;2023-02-20T06:19:25;101447.09;;;5.99;64.15
64086;BME280;50333;47.436;21.390;2023-02-20T06:21:53;101453.09;;;5.73;64.51
64086;BME280;50333;47.436;21.390;2023-02-20T06:24:21;101447.91;;;5.73;64.29
64086;BME280;50333;47.436;21.390;2023-02-20T06:26:49;101445.31;;;5.40;65.03
64086;BME280;50333;47.436;21.390;2023-02-20T06:29:18;101437.13;;;5.83;63.95
64086;BME280;50333;47.436;21.390;2023-02-20T06:31:46;101438.75;;;5.77;63.46
64086;BME280;50333;47.436;21.390;2023-02-20T06:34:15;101441.16;;;5.25;65.00
64086;BME280;50333;47.436;21.390;2023-02-20T06:36:43;101443.91;;;5.84;63.36
64086;BME280;50333;47.436;21.390;2023-02-20T06:39:12;101454.03;;;5.99;62.41
64086;BME280;50333;47.436;21.390;2023-02-20T06:41:41;101448.31;;;5.77;62.25
64086;BME280;50333;47.436;21.390;2023-02-20T06:44:09;101454.25;;;5.97;62.31
64086;BME280;50333;47.436;21.390;2023-02-20T06:46:37;101450.91;;;5.63;62.60
64086;BME280;50333;47.436;21.390;2023-02-20T06:49:05;101443.91;;;5.91;61.83
64086;BME280;50333;47.436;21.390;2023-02-20T06:51:33;101441.72;;;5.81;61.36
64086;BME280;50333;47.436;21.390;2023-02-20T06:54:02;101446.50;;;5.84;61.71
64086;BME280;50333;47.436;21.390;2023-02-20T06:56:32;101437.72;;;5.92;60.91
64086;BME280;50333;47.436;21.390;2023-02-20T06:59:02;101431.56;;;5.73;61.14
64086;BME280;50333;47.436;21.390;2023-02-20T07:01:37;101436.34;;;5.62;61.35
64086;BME280;50333;47.436;21.390;2023-02-20T07:04:34;101433.16;;;5.87;60.85
64086;BME280;50333;47.436;21.390;2023-02-20T07:07:02;101431.38;;;5.81;60.54
64086;BME280;50333;47.436;21.390;2023-02-20T07:09:29;101432.97;;;5.69;61.36
64086;BME280;50333;47.436;21.390;2023-02-20T07:11:57;101438.31;;;6.00;60.61
64086;BME280;50333;47.436;21.390;2023-02-20T07:14:25;101452.09;;;5.47;61.25
64086;BME280;50333;47.436;21.390;2023-02-20T07:16:53;101452.41;;;6.18;59.29
64086;BME280;50333;47.436;21.390;2023-02-20T07:19:21;101452.06;;;6.53;59.08
64086;BME280;50333;47.436;21.390;2023-02-20T07:21:49;101462.44;;;6.01;59.07
64086;BME280;50333;47.436;21.390;2023-02-20T07:24:17;101463.28;;;6.47;57.47
64086;BME280;50333;47.436;21.390;2023-02-20T07:26:44;101463.16;;;6.67;56.84
64086;BME280;50333;47.436;21.390;2023-02-20T07:29:13;101460.56;;;6.73;56.60
64086;BME280;50333;47.436;21.390;2023-02-20T07:31:41;101462.03;;;6.56;56.20
64086;BME280;50333;47.436;21.390;2023-02-20T07:34:10;101462.38;;;6.66;55.52
64086;BME280;50333;47.436;21.390;2023-02-20T07:36:39;101461.69;;;6.39;55.68
64086;BME280;50333;47.436;21.390;2023-02-20T07:39:07;101464.00;;;6.60;56.08
64086;BME280;50333;47.436;21.390;2023-02-20T07:41:35;101468.56;;;7.04;55.03
64086;BME280;50333;47.436;21.390;2023-02-20T07:44:04;101472.72;;;6.73;55.63
64086;BME280;50333;47.436;21.390;2023-02-20T07:46:32;101472.81;;;6.91;55.30
64086;BME280;50333;47.436;21.390;2023-02-20T07:49:03;101473.28;;;6.82;54.79
64086;BME280;50333;47.436;21.390;2023-02-20T07:51:32;101479.38;;;7.26;54.00
64086;BME280;50333;47.436;21.390;2023-02-20T07:54:00;101477.44;;;7.21;53.91
64086;BME280;50333;47.436;21.390;2023-02-20T07:56:28;101474.94;;;7.33;53.28
64086;BME280;50333;47.436;21.390;2023-02-20T07:58:57;101465.94;;;7.61;53.06
64086;BME280;50333;47.436;21.390;2023-02-20T08:01:27;101473.97;;;7.27;53.56
64086;BME280;50333;47.436;21.390;2023-02-20T08:03:57;101478.47;;;7.13;53.49
64086;BME280;50333;47.436;21.390;2023-02-20T08:06:24;101466.50;;;7.63;52.34
64086;BME280;50333;47.436;21.390;2023-02-20T08:08:52;101463.53;;;7.84;51.92
64086;BME280;50333;47.436;21.390;2023-02-20T08:11:21;101464.91;;;8.05;52.70
64086;BME280;50333;47.436;21.390;2023-02-20T08:13:50;101453.50;;;8.25;51.19
64086;BME280;50333;47.436;21.390;2023-02-20T08:16:17;101454.31;;;8.07;51.36
64086;BME280;50333;47.436;21.390;2023-02-20T08:18:45;101455.88;;;7.89;51.14
64086;BME280;50333;47.436;21.390;2023-02-20T08:21:16;101456.84;;;8.14;50.68
64086;BME280;50333;47.436;21.390;2023-02-20T08:23:44;101462.81;;;8.14;50.51
64086;BME280;50333;47.436;21.390;2023-02-20T08:26:12;101463.53;;;7.59;51.08
64086;BME280;50333;47.436;21.390;2023-02-20T08:28:40;101458.91;;;7.86;50.66
64086;BME280;50333;47.436;21.390;2023-02-20T08:31:08;101450.25;;;7.92;50.44
64086;BME280;50333;47.436;21.390;2023-02-20T08:33:44;101445.19;;;8.53;50.34
64086;BME280;50333;47.436;21.390;2023-02-20T08:36:11;101445.50;;;8.75;48.13
64086;BME280;50333;47.436;21.390;2023-02-20T08:38:41;101441.53;;;8.73;47.75
64086;BME280;50333;47.436;21.390;2023-02-20T08:41:11;101441.78;;;8.83;47.50
64086;BME280;50333;47.436;21.390;2023-02-20T08:43:39;101440.69;;;8.60;47.98
64086;BME280;50333;47.436;21.390;2023-02-20T08:46:10;101441.53;;;8.73;46.50
64086;BME280;50333;47.436;21.390;2023-02-20T08:48:38;101430.72;;;8.08;48.13
64086;BME280;50333;47.436;21.390;2023-02-20T08:51:06;101434.66;;;8.78;48.35
64086;BME280;50333;47.436;21.390;2023-02-20T08:53:37;101430.47;;;8.47;47.95
64086;BME280;50333;47.436;21.390;2023-02-20T08:56:06;101423.59;;;8.53;46.99
64086;BME280;50333;47.436;21.390;2023-02-20T08:58:33;101425.62;;;8.32;47.79
64086;BME280;50333;47.436;21.390;2023-02-20T09:01:01;101433.25;;;8.15;47.72
64086;BME280;50333;47.436;21.390;2023-02-20T09:03:29;101415.06;;;7.34;48.80
64086;BME280;50333;47.436;21.390;2023-02-20T09:05:57;101406.69;;;7.95;49.00
64086;BME280;50333;47.436;21.390;2023-02-20T09:08:25;101399.31;;;7.54;49.10
64086;BME280;50333;47.436;21.390;2023-02-20T09:10:52;101404.78;;;8.20;48.39
64086;BME280;50333;47.436;21.390;2023-02-20T09:13:20;101400.84;;;7.81;48.70
64086;BME280;50333;47.436;21.390;2023-02-20T09:15:48;101407.75;;;8.24;49.18
64086;BME280;50333;47.436;21.390;2023-02-20T09:18:16;101409.81;;;8.34;49.36
64086;BME280;50333;47.436;21.390;2023-02-20T09:20:43;101406.47;;;7.96;49.79
64086;BME280;50333;47.436;21.390;2023-02-20T09:23:12;101411.50;;;8.28;49.41
64086;BME280;50333;47.436;21.390;2023-02-20T09:25:40;101402.06;;;7.78;48.59
64086;BME280;50333;47.436;21.390;2023-02-20T09:28:08;101396.69;;;8.28;48.32
64086;BME280;50333;47.436;21.390;2023-02-20T09:30:39;101401.69;;;8.30;48.80
64086;BME280;50333;47.436;21.390;2023-02-20T09:33:07;101388.53;;;7.95;49.00
64086;BME280;50333;47.436;21.390;2023-02-20T09:35:34;101386.53;;;8.27;48.28
64086;BME280;50333;47.436;21.390;2023-02-20T09:38:02;101380.09;;;7.81;48.37
64086;BME280;50333;47.436;21.390;2023-02-20T09:40:30;101377.25;;;8.01;47.50
64086;BME280;50333;47.436;21.390;2023-02-20T09:46:19;101363.28;;;8.32;48.38
64086;BME280;50333;47.436;21.390;2023-02-20T09:51:21;101374.97;;;8.41;45.79
64086;BME280;50333;47.436;21.390;2023-02-20T09:56:25;101369.06;;;7.67;48.19
64086;BME280;50333;47.436;21.390;2023-02-20T09:58:59;101364.53;;;8.11;47.96
64086;BME280;50333;47.436;21.390;2023-02-20T10:01:30;101351.44;;;8.66;47.76
64086;BME280;50333;47.436;21.390;2023-02-20T10:04:07;101358.06;;;8.32;48.11
64086;BME280;50333;47.436;21.390;2023-02-20T10:06:36;101357.94;;;7.97;47.53
64086;BME280;50333;47.436;21.390;2023-02-20T10:09:10;101359.88;;;8.31;47.26
64086;BME280;50333;47.436;21.390;2023-02-20T10:25:30;101349.97;;;8.40;48.51
64086;BME280;50333;47.436;21.390;2023-02-20T10:28:06;101337.34;;;8.14;48.97
64086;BME280;50333;47.436;21.390;2023-02-20T10:30:40;101324.53;;;7.82;49.47
64086;BME280;50333;47.436;21.390;2023-02-20T10:36:01;101328.47;;;8.03;48.95
64086;BME280;50333;47.436;21.390;2023-02-20T10:38:37;101346.25;;;8.36;51.10
64086;BME280;50333;47.436;21.390;2023-02-20T10:44:34;101337.38;;;7.77;50.09
64086;BME280;50333;47.436;21.390;2023-02-20T10:50:03;101314.53;;;8.46;50.19
64086;BME280;50333;47.436;21.390;2023-02-20T10:52:51;101326.28;;;8.18;49.68
64086;BME280;50333;47.436;21.390;2023-02-20T10:55:26;101318.91;;;8.03;50.86
64086;BME280;50333;47.436;21.390;2023-02-20T10:58:13;101327.25;;;7.57;51.68
64086;BME280;50333;47.436;21.390;2023-02-20T11:00:48;101320.75;;;7.66;52.09
64086;BME280;50333;47.436;21.390;2023-02-20T11:03:23;101318.75;;;7.49;52.28
64086;BME280;50333;47.436;21.390;2023-02-20T11:05:54;101301.50;;;7.55;52.19
64086;BME280;50333;47.436;21.390;2023-02-20T11:08:23;101288.97;;;7.52;52.91
64086;BME280;50333;47.436;21.390;2023-02-20T11:10:55;101293.06;;;7.60;52.61
64086;BME280;50333;47.436;21.390;2023-02-20T11:13:25;101282.78;;;8.02;53.00
64086;BME280;50333;47.436;21.390;2023-02-20T11:15:54;101274.44;;;8.11;52.87
64086;BME280;50333;47.436;21.390;2023-02-20T11:18:34;101273.78;;;8.16;52.56
64086;BME280;50333;47.436;21.390;2023-02-20T11:21:02;101273.38;;;8.01;52.99
64086;BME280;50333;47.436;21.390;2023-02-20T11:23:38;101282.22;;;7.81;53.82
64086;BME280;50333;47.436;21.390;2023-02-20T11:26:29;101266.84;;;7.31;54.88
64086;BME280;50333;47.436;21.390;2023-02-20T11:29:03;101255.47;;;7.32;55.28
64086;BME280;50333;47.436;21.390;2023-02-20T11:31:33;101261.47;;;7.81;54.05
64086;BME280;50333;47.436;21.390;2023-02-20T11:34:03;101248.91;;;7.78;54.28
64086;BME280;50333;47.436;21.390;2023-02-20T11:36:38;101246.31;;;7.78;54.50
64086;BME280;50333;47.436;21.390;2023-02-20T11:39:28;101232.78;;;7.76;54.73
64086;BME280;50333;47.436;21.390;2023-02-20T11:42:11;101220.34;;;8.08;54.63
64086;BME280;50333;47.436;21.390;2023-02-20T11:44:39;101225.78;;;8.30;53.45
64086;BME280;50333;47.436;21.390;2023-02-20T11:47:25;101210.28;;;8.54;53.79
64086;BME280;50333;47.436;21.390;2023-02-20T11:53:01;101222.25;;;8.43;53.60
64086;BME280;50333;47.436;21.390;2023-02-20T11:55:32;101221.41;;;8.31;52.79
64086;BME280;50333;47.436;21.390;2023-02-20T11:58:01;101227.50;;;8.25;53.63
64086;BME280;50333;47.436;21.390;2023-02-20T12:00:44;101224.69;;;8.38;54.05
64086;BME280;50333;47.436;21.390;2023-02-20T12:03:19;101224.63;;;8.45;53.15
64086;BME280;50333;47.436;21.390;2023-02-20T12:05:47;101211.50;;;8.63;52.55
64086;BME280;50333;47.436;21.390;2023-02-20T12:10:52;101213.19;;;7.92;55.18
64086;BME280;50333;47.436;21.390;2023-02-20T12:13:22;101211.28;;;7.99;55.43
64086;BME280;50333;47.436;21.390;2023-02-20T12:15:56;101202.75;;;8.34;54.24
64086;BME280;50333;47.436;21.390;2023-02-20T12:26:57;101184.44;;;9.00;54.57
64086;BME280;50333;47.436;21.390;2023-02-20T12:34:57;101175.44;;;8.79;52.75
64086;BME280;50333;47.436;21.390;2023-02-20T12:43:52;101156.81;;;8.58;54.67
64086;BME280;50333;47.436;21.390;2023-02-20T12:53:12;101143.69;;;8.77;55.46
64086;BME280;50333;47.436;21.390;2023-02-20T13:01:30;101124.16;;;9.15;54.09
64086;BME280;50333;47.436;21.390;2023-02-20T13:07:09;101108.81;;;9.30;54.32
64086;BME280;50333;47.436;21.390;2023-02-20T13:12:25;101105.44;;;8.89;55.25
64086;BME280;50333;47.436;21.390;2023-02-20T13:15:23;101100.84;;;9.20;54.86
64086;BME280;50333;47.436;21.390;2023-02-20T13:20:26;101106.03;;;9.20;55.49
64086;BME280;50333;47.436;21.390;2023-02-20T13:23:23;101102.38;;;9.04;56.13
64086;BME280;50333;47.436;21.390;2023-02-20T13:25:54;101101.09;;;9.06;56.03
64086;BME280;50333;47.436;21.390;2023-02-20T13:28:28;101089.91;;;9.06;56.77
64086;BME280;50333;47.436;21.390;2023-02-20T13:36:44;101083.44;;;9.71;56.80
64086;BME280;50333;47.436;21.390;2023-02-20T13:46:57;101081.16;;;9.92;57.38
64086;BME280;50333;47.436;21.390;2023-02-20T13:55:00;101075.75;;;10.32;57.47
64086;BME280;50333;47.436;21.390;2023-02-20T13:57:30;101083.03;;;10.13;58.02
64086;BME280;50333;47.436;21.390;2023-02-20T14:00:02;101082.16;;;10.08;58.43
64086;BME280;50333;47.436;21.390;2023-02-20T14:02:44;101076.19;;;10.07;58.52
64086;BME280;50333;47.436;21.390;2023-02-20T14:05:19;101076.78;;;10.14;58.41
64086;BME280;50333;47.436;21.390;2023-02-20T14:07:49;101069.81;;;10.37;58.77
64086;BME280;50333;47.436;21.390;2023-02-20T14:10:29;101064.63;;;10.37;59.19
64086;BME280;50333;47.436;21.390;2023-02-20T14:13:17;101065.81;;;10.12;60.09
64086;BME280;50333;47.436;21.390;2023-02-20T14:15:55;101053.09;;;10.33;60.06
64086;BME280;50333;47.436;21.390;2023-02-20T14:18:26;101062.44;;;10.51;59.86
64086;BME280;50333;47.436;21.390;2023-02-20T14:21:03;101062.72;;;10.32;60.27
64086;BME280;50333;47.436;21.390;2023-02-20T14:23:34;101040.16;;;10.43;60.18
64086;BME280;50333;47.436;21.390;2023-02-20T14:26:04;101042.91;;;10.53;60.17
64086;BME280;50333;47.436;21.390;2023-02-20T14:28:33;101039.03;;;10.56;60.26
64086;BME280;50333;47.436;21.390;2023-02-20T14:31:16;101028.72;;;10.66;59.98
64086;BME280;50333;47.436;21.390;2023-02-20T14:33:47;101032.06;;;10.62;60.27
64086;BME280;50333;47.436;21.390;2023-02-20T14:36:35;101035.31;;;10.74;60.87
64086;BME280;50333;47.436;21.390;2023-02-20T14:42:15;101014.06;;;10.87;61.16
64086;BME280;50333;47.436;21.390;2023-02-20T14:44:47;101019.22;;;10.82;60.96
64086;BME280;50333;47.436;21.390;2023-02-20T14:47:16;101021.25;;;10.75;61.18
64086;BME280;50333;47.436;21.390;2023-02-20T14:49:44;101012.87;;;10.73;60.42
64086;BME280;50333;47.436;21.390;2023-02-20T14:52:17;100997.31;;;10.83;60.38
64086;BME280;50333;47.436;21.390;2023-02-20T14:55:16;101011.34;;;10.77;60.86
64086;BME280;50333;47.436;21.390;2023-02-20T14:57:44;101008.56;;;10.84;60.91
64086;BME280;50333;47.436;21.390;2023-02-20T15:02:49;101001.75;;;10.55;61.30
64086;BME280;50333;47.436;21.390;2023-02-20T15:05:30;100978.41;;;10.71;60.99
64086;BME280;50333;47.436;21.390;2023-02-20T15:10:49;100978.81;;;10.57;60.48
64086;BME280;50333;47.436;21.390;2023-02-20T15:13:22;100992.87;;;10.56;60.83
64086;BME280;50333;47.436;21.390;2023-02-20T15:15:54;100973.56;;;10.52;60.84
64086;BME280;50333;47.436;21.390;2023-02-20T15:18:36;100962.03;;;10.48;60.81
64086;BME280;50333;47.436;21.390;2023-02-20T15:21:05;100954.84;;;10.33;60.96
64086;BME280;50333;47.436;21.390;2023-02-20T15:23:43;100964.03;;;10.41;60.76